createdAt,value
2019-03-19T00:03:25.356Z,1.31
2019-03-19T00:07:27.739Z,1.24
2019-03-19T00:11:30.006Z,1.15
2019-03-19T00:15:33.181Z,1.05
2019-03-19T00:19:35.425Z,0.98
2019-03-19T00:23:37.770Z,0.97
2019-03-19T00:27:40.043Z,0.94
2019-03-19T00:31:42.191Z,0.92
2019-03-19T00:35:44.423Z,0.93
2019-03-19T00:39:48.830Z,0.94
2019-03-19T00:43:51.285Z,0.93
2019-03-19T00:47:53.463Z,0.92
2019-03-19T00:51:55.847Z,0.91
2019-03-19T00:55:58.027Z,0.91
2019-03-19T01:00:00.435Z,0.93
2019-03-19T01:04:02.654Z,0.94
2019-03-19T01:08:04.886Z,0.96
2019-03-19T01:12:07.316Z,0.96
2019-03-19T01:16:09.886Z,0.93
2019-03-19T01:20:13.140Z,0.95
2019-03-19T01:24:16.449Z,1.00
2019-03-19T01:28:18.648Z,0.97
2019-03-19T01:32:20.959Z,0.95
2019-03-19T01:36:23.112Z,0.95
2019-03-19T01:40:25.685Z,0.93
2019-03-19T01:44:27.939Z,0.95
2019-03-19T01:48:30.147Z,0.94
2019-03-19T01:52:32.304Z,0.97
2019-03-19T01:56:34.723Z,1.00
2019-03-19T02:00:36.905Z,0.99
2019-03-19T02:04:39.348Z,0.99
2019-03-19T02:08:41.570Z,0.98
2019-03-19T02:12:43.999Z,1.02
2019-03-19T02:16:47.082Z,1.06
2019-03-19T02:20:49.678Z,1.08
2019-03-19T02:24:51.837Z,1.03
2019-03-19T02:28:54.079Z,1.01
2019-03-19T02:32:56.282Z,1.02
2019-03-19T02:36:59.071Z,1.05
2019-03-19T02:41:01.396Z,1.16
2019-03-19T02:45:03.630Z,1.27
2019-03-19T02:49:05.796Z,1.31
2019-03-19T02:53:08.150Z,1.39
2019-03-19T02:57:10.351Z,1.40
2019-03-19T03:01:12.675Z,1.44
2019-03-19T03:05:15.164Z,1.45
2019-03-19T03:09:17.663Z,1.46
2019-03-19T03:13:19.877Z,1.43
2019-03-19T03:17:22.108Z,1.42
2019-03-19T03:21:24.269Z,1.41
2019-03-19T03:25:26.612Z,1.44
2019-03-19T03:29:28.911Z,1.44
2019-03-19T03:33:31.253Z,1.44
2019-03-19T03:37:34.609Z,1.40
2019-03-19T03:41:38.296Z,1.37
2019-03-19T03:45:40.473Z,1.35
2019-03-19T03:49:42.688Z,1.32
2019-03-19T03:53:44.850Z,1.30
2019-03-19T03:57:47.296Z,1.29
2019-03-19T04:01:49.465Z,1.32
2019-03-19T04:05:51.947Z,1.34
2019-03-19T04:09:54.123Z,1.32
2019-03-19T04:13:56.991Z,1.25
2019-03-19T04:17:59.216Z,1.25
2019-03-19T04:22:01.580Z,1.25
2019-03-19T04:26:03.914Z,1.25
2019-03-19T04:30:08.543Z,1.24
2019-03-19T04:34:10.739Z,1.22
2019-03-19T04:38:13.178Z,1.20
2019-03-19T04:42:15.355Z,1.19
2019-03-19T04:46:17.603Z,1.20
2019-03-19T04:50:19.899Z,1.16
2019-03-19T04:54:23.139Z,1.11
2019-03-19T04:58:25.305Z,1.03
2019-03-19T05:02:27.543Z,0.95
2019-03-19T05:06:29.722Z,0.85
2019-03-19T05:10:32.026Z,0.74
2019-03-19T05:14:34.505Z,0.66
2019-03-19T05:18:36.831Z,0.60
2019-03-19T05:22:39.018Z,0.58
2019-03-19T05:26:42.564Z,0.57
2019-03-19T05:30:44.742Z,0.55
2019-03-19T05:34:46.998Z,0.51
2019-03-19T05:38:49.221Z,0.50
2019-03-19T05:42:51.467Z,0.50
2019-03-19T05:46:53.683Z,0.51
2019-03-19T05:50:55.942Z,0.52
2019-03-19T05:54:58.153Z,0.55
2019-03-19T05:59:01.105Z,0.52
2019-03-19T06:03:03.600Z,0.55
2019-03-19T06:07:06.422Z,0.57
2019-03-19T06:11:08.819Z,0.58
2019-03-19T06:15:11.839Z,0.58
2019-03-19T06:19:14.357Z,0.63
2019-03-19T06:23:16.810Z,0.65
2019-03-19T06:27:19.160Z,0.63
2019-03-19T06:31:21.541Z,0.65
2019-03-19T06:35:23.991Z,0.68
2019-03-19T06:39:26.672Z,0.76
2019-03-19T06:43:29.278Z,0.81
2019-03-19T06:47:31.954Z,0.87
2019-03-19T06:51:34.589Z,0.94
2019-03-19T06:55:37.443Z,1.00
2019-03-19T06:59:40.012Z,1.08
2019-03-19T07:03:42.908Z,1.15
2019-03-19T07:07:45.650Z,1.28
2019-03-19T07:11:48.177Z,1.36
2019-03-19T07:15:52.122Z,1.42
2019-03-19T07:19:54.374Z,1.55
2019-03-19T07:23:56.543Z,1.64
2019-03-19T07:27:59.101Z,1.79
2019-03-19T07:32:01.332Z,1.85
2019-03-19T07:36:06.152Z,1.90
2019-03-19T07:40:09.020Z,1.97
2019-03-19T07:44:12.272Z,2.00
2019-03-19T07:48:14.476Z,2.12
2019-03-19T07:52:17.244Z,2.30
2019-03-19T07:56:19.445Z,2.43
2019-03-19T08:00:22.164Z,2.55
2019-03-19T08:04:24.938Z,2.54
2019-03-19T08:08:27.862Z,2.69
2019-03-19T08:12:29.998Z,2.72
2019-03-19T08:16:32.467Z,2.87
2019-03-19T08:20:34.659Z,2.88
2019-03-19T08:24:37.045Z,2.88
2019-03-19T08:28:39.218Z,2.75
2019-03-19T08:32:41.518Z,2.76
2019-03-19T08:36:43.728Z,2.84
2019-03-19T08:40:46.042Z,2.91
2019-03-19T08:44:49.378Z,2.88
2019-03-19T08:48:51.806Z,3.03
2019-03-19T08:52:55.453Z,3.19
2019-03-19T08:56:58.176Z,3.26
2019-03-19T09:01:02.002Z,3.28
2019-03-19T09:05:04.388Z,3.36
2019-03-19T09:09:09.458Z,3.58
2019-03-19T09:13:12.028Z,3.65
2019-03-19T09:17:14.484Z,3.72
2019-03-19T09:21:17.215Z,3.60
2019-03-19T09:25:19.433Z,3.65
2019-03-19T09:29:22.090Z,3.48
2019-03-19T09:33:24.463Z,3.38
2019-03-19T09:37:27.171Z,3.35
2019-03-19T09:41:29.624Z,3.28
2019-03-19T09:45:32.229Z,3.26
2019-03-19T09:49:34.436Z,3.21
2019-03-19T09:53:36.896Z,3.32
2019-03-19T09:57:39.135Z,3.33
2019-03-19T10:01:41.714Z,3.27
2019-03-19T10:05:44.185Z,3.24
2019-03-19T10:09:46.745Z,3.21
2019-03-19T10:13:49.094Z,3.19
2019-03-19T10:17:51.800Z,3.15
2019-03-19T10:21:54.100Z,3.20
2019-03-19T10:25:56.775Z,3.16
2019-03-19T10:29:59.246Z,3.16
2019-03-19T10:34:01.519Z,3.17
2019-03-19T10:38:03.998Z,3.26
2019-03-19T10:42:06.757Z,3.28
2019-03-19T10:46:09.176Z,3.37
2019-03-19T10:50:19.985Z,3.08
2019-03-19T10:54:22.168Z,3.00
2019-03-19T10:58:24.564Z,3.09
2019-03-19T11:02:26.790Z,3.17
2019-03-19T11:06:29.033Z,3.17
2019-03-19T11:10:34.287Z,3.08
2019-03-19T11:14:36.711Z,3.10
2019-03-19T11:18:39.461Z,3.30
2019-03-19T11:22:41.780Z,3.33
2019-03-19T11:26:43.990Z,3.41
2019-03-19T11:30:46.350Z,3.50
2019-03-19T11:34:49.463Z,3.37
2019-03-19T11:38:51.737Z,3.42
2019-03-19T11:42:54.070Z,3.53
2019-03-19T11:46:56.433Z,3.78
2019-03-19T11:50:58.725Z,3.90
2019-03-19T11:55:01.171Z,3.92
2019-03-19T11:59:04.120Z,3.80
2019-03-19T12:03:12.651Z,3.83
2019-03-19T12:07:11.033Z,4.03
2019-03-19T12:11:15.010Z,3.99
2019-03-19T12:15:17.574Z,4.11
2019-03-19T12:19:21.164Z,4.17
2019-03-19T12:23:27.224Z,3.91
2019-03-19T12:27:29.528Z,3.69
2019-03-19T12:31:34.174Z,3.65
2019-03-19T12:35:36.460Z,3.81
2019-03-19T12:39:38.673Z,3.85
2019-03-19T12:43:41.080Z,3.83
2019-03-19T12:47:43.395Z,3.83
2019-03-19T12:51:45.754Z,4.06
2019-03-19T12:55:48.105Z,4.00
2019-03-19T12:59:50.610Z,4.01
2019-03-19T13:03:52.784Z,3.80
2019-03-19T13:07:55.105Z,3.56
2019-03-19T13:11:57.299Z,3.47
2019-03-19T13:15:59.625Z,3.51
2019-03-19T13:20:02.163Z,3.58
2019-03-19T13:24:05.803Z,3.51
2019-03-19T13:28:09.311Z,3.45
2019-03-19T13:32:11.577Z,3.53
2019-03-19T13:36:13.861Z,3.64
2019-03-19T13:40:17.334Z,3.81
2019-03-19T13:44:19.562Z,3.99
2019-03-19T13:48:21.821Z,3.97
2019-03-19T13:52:24.024Z,3.93
2019-03-19T13:56:26.546Z,3.80
2019-03-19T14:00:28.769Z,3.76
2019-03-19T14:04:32.090Z,3.70
2019-03-19T14:08:34.264Z,3.78
2019-03-19T14:12:36.746Z,3.72
2019-03-19T14:16:39.031Z,3.60
2019-03-19T14:20:43.048Z,3.61
2019-03-19T14:24:45.320Z,3.55
2019-03-19T14:28:47.889Z,3.49
2019-03-19T14:32:50.074Z,3.40
2019-03-19T14:36:52.746Z,3.27
2019-03-19T14:40:54.961Z,3.26
2019-03-19T14:44:57.284Z,3.18
2019-03-19T14:48:59.469Z,3.03
2019-03-19T14:53:01.879Z,2.99
2019-03-19T14:57:04.089Z,2.93
2019-03-19T15:01:06.375Z,2.86
2019-03-19T15:05:09.263Z,2.78
2019-03-19T15:09:11.652Z,2.72
2019-03-19T15:13:13.890Z,2.68
2019-03-19T15:17:16.214Z,2.65
2019-03-19T15:21:18.431Z,2.63
2019-03-19T15:25:22.933Z,2.55
2019-03-19T15:29:25.514Z,2.51
2019-03-19T15:33:27.878Z,2.47
2019-03-19T15:37:31.481Z,2.43
2019-03-19T15:41:33.801Z,2.41
2019-03-19T15:45:36.018Z,2.40
2019-03-19T15:49:38.729Z,2.37
2019-03-19T15:53:40.988Z,2.34
2019-03-19T15:57:43.578Z,2.27
2019-03-19T16:01:45.863Z,2.24
2019-03-19T16:05:48.117Z,2.23
2019-03-19T16:09:50.351Z,2.19
2019-03-19T16:13:52.647Z,2.14
2019-03-19T16:17:54.958Z,2.10
2019-03-19T16:21:57.352Z,2.06
2019-03-19T16:26:01.277Z,2.01
2019-03-19T16:30:04.321Z,1.96
2019-03-19T16:34:11.644Z,1.91
2019-03-19T16:38:15.039Z,1.88
2019-03-19T16:42:17.517Z,1.85
2019-03-19T16:46:19.806Z,1.79
2019-03-19T16:50:22.184Z,1.74
2019-03-19T16:54:24.697Z,1.71
2019-03-19T16:58:26.922Z,1.69
2019-03-19T17:02:29.555Z,1.65
2019-03-19T17:06:32.160Z,1.61
2019-03-19T17:10:35.543Z,1.58
2019-03-19T17:14:37.785Z,1.55
2019-03-19T17:18:40.066Z,1.53
2019-03-19T17:22:42.389Z,1.50
2019-03-19T17:26:44.820Z,1.47
2019-03-19T17:30:47.446Z,1.45
2019-03-19T17:34:49.967Z,1.45
2019-03-19T17:38:52.175Z,1.42
2019-03-19T17:42:54.777Z,1.42
2019-03-19T17:46:56.998Z,1.40
2019-03-19T17:50:59.355Z,1.38
2019-03-19T17:55:02.759Z,1.36
2019-03-19T17:59:08.697Z,1.33
2019-03-19T18:03:11.982Z,1.33
2019-03-19T18:07:14.497Z,1.30
2019-03-19T18:11:17.157Z,1.28
2019-03-19T18:15:19.802Z,1.27
2019-03-19T18:19:22.376Z,1.28
2019-03-19T18:23:24.791Z,1.22
2019-03-19T18:27:27.775Z,1.17
2019-03-19T18:31:31.288Z,1.16
2019-03-19T18:35:34.128Z,1.14
2019-03-19T18:39:36.569Z,1.12
2019-03-19T18:43:39.067Z,1.08
2019-03-19T18:47:43.251Z,1.05
2019-03-19T18:51:45.866Z,1.02
2019-03-19T18:55:49.386Z,1.01
2019-03-19T18:59:51.976Z,0.98
2019-03-19T19:03:54.935Z,0.97
2019-03-19T19:07:57.255Z,0.94
2019-03-19T19:11:59.636Z,0.93
2019-03-19T19:16:02.435Z,0.91
2019-03-19T19:20:05.294Z,0.90
2019-03-19T19:24:07.706Z,0.88
2019-03-19T19:28:10.375Z,0.87
2019-03-19T19:32:12.592Z,0.86
2019-03-19T19:36:15.276Z,0.84
2019-03-19T19:40:17.705Z,0.82
2019-03-19T19:44:20.357Z,0.81
2019-03-19T19:48:23.894Z,0.78
2019-03-19T19:52:28.331Z,0.75
2019-03-19T19:56:30.770Z,0.75
2019-03-19T20:00:33.506Z,0.73
2019-03-19T20:04:36.011Z,0.72
2019-03-19T20:08:38.838Z,0.71
2019-03-19T20:12:41.561Z,0.70
2019-03-19T20:16:44.377Z,0.69
2019-03-19T20:20:46.974Z,0.68
2019-03-19T20:24:49.580Z,0.67
2019-03-19T20:28:52.319Z,0.67
2019-03-19T20:32:54.886Z,0.64
2019-03-19T20:36:57.574Z,0.63
2019-03-19T20:41:01.677Z,0.63
2019-03-19T20:45:04.335Z,0.62
2019-03-19T20:49:07.118Z,0.60
2019-03-19T20:53:09.714Z,0.60
2019-03-19T20:57:14.872Z,0.59
2019-03-19T21:01:17.517Z,0.58
2019-03-19T21:05:20.174Z,0.57
2019-03-19T21:09:22.732Z,0.57
2019-03-19T21:13:25.258Z,0.53
2019-03-19T21:17:27.790Z,0.50
2019-03-19T21:21:30.453Z,0.49
2019-03-19T21:25:32.938Z,0.47
2019-03-19T21:29:35.502Z,0.48
2019-03-19T21:33:38.226Z,0.44
2019-03-19T21:37:40.912Z,0.42
2019-03-19T21:41:43.589Z,0.41
2019-03-19T21:45:46.238Z,0.41
2019-03-19T21:49:49.083Z,0.39
2019-03-19T21:53:51.816Z,0.38
2019-03-19T21:57:54.355Z,0.36
2019-03-19T22:01:59.256Z,0.35
2019-03-19T22:06:01.670Z,0.35
2019-03-19T22:10:04.759Z,0.32
2019-03-19T22:14:07.579Z,0.32
2019-03-19T22:18:10.737Z,0.32
2019-03-19T22:22:13.321Z,0.30
2019-03-19T22:26:16.008Z,0.29
2019-03-19T22:30:18.523Z,0.29
2019-03-19T22:34:21.328Z,0.26
2019-03-19T22:38:23.957Z,0.25
2019-03-19T22:42:28.001Z,0.22
2019-03-19T22:46:30.649Z,0.21
2019-03-19T22:50:33.311Z,0.18
2019-03-19T22:54:35.739Z,0.17
2019-03-19T22:58:38.409Z,0.17
2019-03-19T23:02:40.800Z,0.15
2019-03-19T23:06:43.440Z,0.13
2019-03-19T23:10:45.930Z,0.12
2019-03-19T23:14:48.536Z,0.08
2019-03-19T23:18:51.029Z,0.07
2019-03-19T23:22:53.512Z,0.07
2019-03-19T23:26:56.211Z,0.06
2019-03-19T23:30:58.890Z,0.04
2019-03-19T23:35:01.498Z,-0.02
2019-03-19T23:39:05.876Z,-0.09
2019-03-19T23:43:08.551Z,-0.12
2019-03-19T23:47:11.213Z,-0.14
2019-03-19T23:51:13.602Z,-0.14
2019-03-19T23:55:16.354Z,-0.15
2019-03-19T23:59:18.889Z,-0.17
